sensor_id;sensor_type;location;lat;lon;timestamp;pressure;altitude;pressure_sealevel;temperature;humidity
20909;BME280;10614;53.198;6.570;2023-05-16T00:00:21;101845.00;;;8.10;100.00
20909;BME280;10614;53.198;6.570;2023-05-16T00:02:28;101846.75;;;8.11;100.00
20909;BME280;10614;53.198;6.570;2023-05-16T00:04:30;101845.00;;;8.10;100.00
20909;BME280;10614;53.198;6.570;2023-05-16T00:06:32;101834.69;;;7.99;100.00
20909;BME280;10614;53.198;6.570;2023-05-16T00:08:35;101850.28;;;8.08;100.00
20909;BME280;10614;53.198;6.570;2023-05-16T00:10:38;101846.81;;;8.06;100.00
20909;BME280;10614;53.198;6.570;2023-05-16T00:12:42;101856.44;;;8.06;100.00
20909;BME280;10614;53.198;6.570;2023-05-16T00:14:45;101844.31;;;7.95;100.00
20909;BME280;10614;53.198;6.570;2023-05-16T00:16:49;101852.13;;;8.03;100.00
20909;BME280;10614;53.198;6.570;2023-05-16T00:18:51;101846.03;;;7.99;100.00
20909;BME280;10614;53.198;6.570;2023-05-16T00:20:53;101849.50;;;8.00;100.00
20909;BME280;10614;53.198;6.570;2023-05-16T00:22:55;101852.19;;;7.97;100.00
20909;BME280;10614;53.198;6.570;2023-05-16T00:25:00;101851.31;;;7.96;100.00
20909;BME280;10614;53.198;6.570;2023-05-16T00:27:03;101858.25;;;8.00;100.00
20909;BME280;10614;53.198;6.570;2023-05-16T00:29:06;101850.44;;;7.97;100.00
20909;BME280;10614;53.198;6.570;2023-05-16T00:31:08;101858.34;;;7.94;100.00
20909;BME280;10614;53.198;6.570;2023-05-16T00:33:10;101858.34;;;7.94;100.00
20909;BME280;10614;53.198;6.570;2023-05-16T00:35:11;101855.72;;;7.94;100.00
20909;BME280;10614;53.198;6.570;2023-05-16T00:37:13;101859.25;;;7.92;100.00
20909;BME280;10614;53.198;6.570;2023-05-16T00:39:15;101853.22;;;7.83;100.00
20909;BME280;10614;53.198;6.570;2023-05-16T00:41:17;101858.44;;;7.85;100.00
20909;BME280;10614;53.198;6.570;2023-05-16T00:43:19;101857.59;;;7.85;100.00
20909;BME280;10614;53.198;6.570;2023-05-16T00:45:22;101862.75;;;7.91;100.00
20909;BME280;10614;53.198;6.570;2023-05-16T00:47:25;101856.59;;;7.93;100.00
20909;BME280;10614;53.198;6.570;2023-05-16T00:49:28;101858.28;;;7.99;100.00
20909;BME280;10614;53.198;6.570;2023-05-16T00:51:30;101855.63;;;8.00;100.00
20909;BME280;10614;53.198;6.570;2023-05-16T00:53:32;101862.59;;;8.03;100.00
20909;BME280;10614;53.198;6.570;2023-05-16T00:55:34;101849.50;;;8.01;100.00
20909;BME280;10614;53.198;6.570;2023-05-16T00:57:36;101859.09;;;8.02;100.00
20909;BME280;10614;53.198;6.570;2023-05-16T00:59:38;101847.00;;;7.94;100.00
20909;BME280;10614;53.198;6.570;2023-05-16T01:01:45;101860.97;;;7.93;100.00
20909;BME280;10614;53.198;6.570;2023-05-16T01:03:47;101852.31;;;7.88;100.00
20909;BME280;10614;53.198;6.570;2023-05-16T01:05:50;101849.72;;;7.85;100.00
20909;BME280;10614;53.198;6.570;2023-05-16T01:07:53;101849.69;;;7.86;100.00
20909;BME280;10614;53.198;6.570;2023-05-16T01:09:55;101846.22;;;7.84;100.00
20909;BME280;10614;53.198;6.570;2023-05-16T01:12:03;101853.25;;;7.82;100.00
20909;BME280;10614;53.198;6.570;2023-05-16T01:14:13;101853.28;;;7.79;100.00
20909;BME280;10614;53.198;6.570;2023-05-16T01:16:21;101857.69;;;7.75;100.00
20909;BME280;10614;53.198;6.570;2023-05-16T01:18:38;101856.00;;;7.71;100.00
20909;BME280;10614;53.198;6.570;2023-05-16T01:20:45;101850.75;;;7.70;100.00
20909;BME280;10614;53.198;6.570;2023-05-16T01:23:03;101853.44;;;7.67;100.00
20909;BME280;10614;53.198;6.570;2023-05-16T01:25:21;101854.34;;;7.64;100.00
20909;BME280;10614;53.198;6.570;2023-05-16T01:27:28;101850.00;;;7.58;100.00
20909;BME280;10614;53.198;6.570;2023-05-16T01:29:31;101844.81;;;7.55;100.00
20909;BME280;10614;53.198;6.570;2023-05-16T01:31:33;101845.69;;;7.56;100.00
20909;BME280;10614;53.198;6.570;2023-05-16T01:33:34;101851.81;;;7.55;100.00
20909;BME280;10614;53.198;6.570;2023-05-16T01:35:39;101857.09;;;7.52;100.00
20909;BME280;10614;53.198;6.570;2023-05-16T01:37:48;101849.25;;;7.49;100.00
20909;BME280;10614;53.198;6.570;2023-05-16T01:39:56;101859.72;;;7.50;100.00
20909;BME280;10614;53.198;6.570;2023-05-16T01:42:02;101849.28;;;7.47;100.00
20909;BME280;10614;53.198;6.570;2023-05-16T01:44:11;101845.81;;;7.42;100.00
20909;BME280;10614;53.198;6.570;2023-05-16T01:46:20;101853.63;;;7.47;100.00
20909;BME280;10614;53.198;6.570;2023-05-16T01:48:27;101848.44;;;7.45;100.00
20909;BME280;10614;53.198;6.570;2023-05-16T01:50:34;101845.81;;;7.42;100.00
20909;BME280;10614;53.198;6.570;2023-05-16T01:52:41;101847.63;;;7.40;100.00
20909;BME280;10614;53.198;6.570;2023-05-16T01:54:47;101850.22;;;7.42;100.00
20909;BME280;10614;53.198;6.570;2023-05-16T01:56:51;101856.34;;;7.40;100.00
20909;BME280;10614;53.198;6.570;2023-05-16T01:58:54;101851.16;;;7.37;100.00
20909;BME280;10614;53.198;6.570;2023-05-16T02:01:01;101846.78;;;7.35;100.00
20909;BME280;10614;53.198;6.570;2023-05-16T02:03:03;101849.38;;;7.36;100.00
20909;BME280;10614;53.198;6.570;2023-05-16T02:05:06;101848.53;;;7.37;100.00
20909;BME280;10614;53.198;6.570;2023-05-16T02:07:08;101859.88;;;7.36;100.00
20909;BME280;10614;53.198;6.570;2023-05-16T02:09:10;101845.09;;;7.29;100.00
20909;BME280;10614;53.198;6.570;2023-05-16T02:11:12;101849.44;;;7.30;100.00
20909;BME280;10614;53.198;6.570;2023-05-16T02:13:14;101847.72;;;7.31;100.00
20909;BME280;10614;53.198;6.570;2023-05-16T02:15:16;101846.81;;;7.32;100.00
20909;BME280;10614;53.198;6.570;2023-05-16T02:17:20;101859.00;;;7.36;100.00
20909;BME280;10614;53.198;6.570;2023-05-16T02:19:21;101851.16;;;7.37;100.00
20909;BME280;10614;53.198;6.570;2023-05-16T02:21:23;101861.53;;;7.45;100.00
20909;BME280;10614;53.198;6.570;2023-05-16T02:23:25;101853.63;;;7.47;100.00
20909;BME280;10614;53.198;6.570;2023-05-16T02:25:27;101851.91;;;7.44;100.00
20909;BME280;10614;53.198;6.570;2023-05-16T02:27:29;101856.19;;;7.53;100.00
20909;BME280;10614;53.198;6.570;2023-05-16T02:29:31;101854.44;;;7.56;100.00
20909;BME280;10614;53.198;6.570;2023-05-16T02:31:34;101854.38;;;7.58;100.00
20909;BME280;10614;53.198;6.570;2023-05-16T02:33:37;101853.53;;;7.57;100.00
20909;BME280;10614;53.198;6.570;2023-05-16T02:35:39;101849.16;;;7.59;100.00
20909;BME280;10614;53.198;6.570;2023-05-16T02:37:41;101854.38;;;7.59;100.00
20909;BME280;10614;53.198;6.570;2023-05-16T02:39:43;101860.50;;;7.58;100.00
20909;BME280;10614;53.198;6.570;2023-05-16T02:41:45;101857.06;;;7.53;100.00
20909;BME280;10614;53.198;6.570;2023-05-16T02:43:47;101841.44;;;7.44;100.00
20909;BME280;10614;53.198;6.570;2023-05-16T02:45:49;101862.41;;;7.46;100.00
20909;BME280;10614;53.198;6.570;2023-05-16T02:47:52;101856.31;;;7.42;100.00
20909;BME280;10614;53.198;6.570;2023-05-16T02:49:55;101853.72;;;7.39;100.00
20909;BME280;10614;53.198;6.570;2023-05-16T02:51:57;101858.13;;;7.37;100.00
20909;BME280;10614;53.198;6.570;2023-05-16T02:53:59;101861.63;;;7.34;100.00
20909;BME280;10614;53.198;6.570;2023-05-16T02:56:00;101852.06;;;7.32;100.00
20909;BME280;10614;53.198;6.570;2023-05-16T02:58:06;101856.44;;;7.31;100.00
20909;BME280;10614;53.198;6.570;2023-05-16T03:00:09;101848.63;;;7.27;100.00
20909;BME280;10614;53.198;6.570;2023-05-16T03:02:12;101851.16;;;7.34;100.00
20909;BME280;10614;53.198;6.570;2023-05-16T03:04:14;101859.81;;;7.39;100.00
20909;BME280;10614;53.198;6.570;2023-05-16T03:06:17;101845.00;;;7.40;100.00
20909;BME280;10614;53.198;6.570;2023-05-16T03:08:19;101853.69;;;7.45;100.00
20909;BME280;10614;53.198;6.570;2023-05-16T03:10:21;101858.91;;;7.45;100.00
20909;BME280;10614;53.198;6.570;2023-05-16T03:12:23;101861.53;;;7.45;100.00
20909;BME280;10614;53.198;6.570;2023-05-16T03:14:25;101858.06;;;7.45;100.00
20909;BME280;10614;53.198;6.570;2023-05-16T03:16:27;101864.16;;;7.42;100.00
20909;BME280;10614;53.198;6.570;2023-05-16T03:18:29;101865.97;;;7.37;100.00
20909;BME280;10614;53.198;6.570;2023-05-16T03:20:30;101866.00;;;7.34;100.00
20909;BME280;10614;53.198;6.570;2023-05-16T03:22:34;101861.69;;;7.31;100.00
20909;BME280;10614;53.198;6.570;2023-05-16T03:24:35;101864.28;;;7.30;100.00
20909;BME280;10614;53.198;6.570;2023-05-16T03:26:37;101866.06;;;7.29;100.00
20909;BME280;10614;53.198;6.570;2023-05-16T03:28:40;101875.66;;;7.29;100.00
20909;BME280;10614;53.198;6.570;2023-05-16T03:30:42;101867.81;;;7.26;100.00
20909;BME280;10614;53.198;6.570;2023-05-16T03:32:44;101867.88;;;7.23;100.00
20909;BME280;10614;53.198;6.570;2023-05-16T03:34:46;101873.13;;;7.21;100.00
20909;BME280;10614;53.198;6.570;2023-05-16T03:36:48;101876.63;;;7.18;100.00
20909;BME280;10614;53.198;6.570;2023-05-16T03:38:51;101879.25;;;7.18;100.00
20909;BME280;10614;53.198;6.570;2023-05-16T03:40:53;101884.50;;;7.17;100.00
20909;BME280;10614;53.198;6.570;2023-05-16T03:42:55;101876.66;;;7.15;100.00
20909;BME280;10614;53.198;6.570;2023-05-16T03:44:56;101882.78;;;7.14;100.00
20909;BME280;10614;53.198;6.570;2023-05-16T03:46:58;101883.66;;;7.16;100.00
20909;BME280;10614;53.198;6.570;2023-05-16T03:49:00;101873.19;;;7.13;100.00
20909;BME280;10614;53.198;6.570;2023-05-16T03:51:02;101870.53;;;7.18;100.00
20909;BME280;10614;53.198;6.570;2023-05-16T03:53:04;101882.69;;;7.25;100.00
20909;BME280;10614;53.198;6.570;2023-05-16T03:55:07;101879.19;;;7.26;100.00
20909;BME280;10614;53.198;6.570;2023-05-16T03:57:09;101880.09;;;7.22;100.00
20909;BME280;10614;53.198;6.570;2023-05-16T03:59:11;101879.22;;;7.22;100.00
20909;BME280;10614;53.198;6.570;2023-05-16T04:01:13;101887.09;;;7.22;100.00
20909;BME280;10614;53.198;6.570;2023-05-16T04:03:15;101892.34;;;7.18;100.00
20909;BME280;10614;53.198;6.570;2023-05-16T04:05:17;101893.22;;;7.19;100.00
20909;BME280;10614;53.198;6.570;2023-05-16T04:07:19;101894.09;;;7.19;100.00
20909;BME280;10614;53.198;6.570;2023-05-16T04:09:22;101881.97;;;7.08;100.00
20909;BME280;10614;53.198;6.570;2023-05-16T04:11:25;101889.75;;;7.14;100.00
20909;BME280;10614;53.198;6.570;2023-05-16T04:13:27;101895.03;;;7.12;100.00
20909;BME280;10614;53.198;6.570;2023-05-16T04:15:28;101899.38;;;7.16;100.00
20909;BME280;10614;53.198;6.570;2023-05-16T04:17:30;101901.13;;;7.14;100.00
20909;BME280;10614;53.198;6.570;2023-05-16T04:19:32;101899.38;;;7.13;100.00
20909;BME280;10614;53.198;6.570;2023-05-16T04:21:34;101905.47;;;7.15;100.00
20909;BME280;10614;53.198;6.570;2023-05-16T04:23:36;101890.66;;;7.11;100.00
20909;BME280;10614;53.198;6.570;2023-05-16T04:25:38;101907.19;;;7.19;100.00
20909;BME280;10614;53.198;6.570;2023-05-16T04:27:41;101905.44;;;7.18;100.00
20909;BME280;10614;53.198;6.570;2023-05-16T04:29:44;101909.78;;;7.21;100.00
20909;BME280;10614;53.198;6.570;2023-05-16T04:31:46;101914.13;;;7.21;100.00
20909;BME280;10614;53.198;6.570;2023-05-16T04:33:48;101904.56;;;7.19;100.00
20909;BME280;10614;53.198;6.570;2023-05-16T04:35:50;101914.13;;;7.24;100.00
20909;BME280;10614;53.198;6.570;2023-05-16T04:37:52;101913.25;;;7.25;100.00
20909;BME280;10614;53.198;6.570;2023-05-16T04:39:54;101918.47;;;7.26;100.00
20909;BME280;10614;53.198;6.570;2023-05-16T04:41:55;101921.91;;;7.30;100.00
20909;BME280;10614;53.198;6.570;2023-05-16T04:44:00;101923.69;;;7.29;100.00
20909;BME280;10614;53.198;6.570;2023-05-16T04:46:04;101922.78;;;7.32;100.00
20909;BME280;10614;53.198;6.570;2023-05-16T04:48:07;101924.53;;;7.31;100.00
20909;BME280;10614;53.198;6.570;2023-05-16T04:50:09;101920.16;;;7.33;100.00
20909;BME280;10614;53.198;6.570;2023-05-16T04:52:11;101920.13;;;7.35;100.00
20909;BME280;10614;53.198;6.570;2023-05-16T04:54:13;101927.97;;;7.38;100.00
20909;BME280;10614;53.198;6.570;2023-05-16T04:56:17;101925.34;;;7.38;100.00
20909;BME280;10614;53.198;6.570;2023-05-16T04:58:19;101928.78;;;7.42;100.00
20909;BME280;10614;53.198;6.570;2023-05-16T05:00:25;101928.75;;;7.49;100.00
20909;BME280;10614;53.198;6.570;2023-05-16T05:02:27;101926.94;;;7.51;100.00
20909;BME280;10614;53.198;6.570;2023-05-16T05:04:28;101931.31;;;7.52;100.00
20909;BME280;10614;53.198;6.570;2023-05-16T05:06:30;101924.38;;;7.48;100.00
20909;BME280;10614;53.198;6.570;2023-05-16T05:08:32;101922.59;;;7.49;100.00
20909;BME280;10614;53.198;6.570;2023-05-16T05:10:34;101928.75;;;7.48;100.00
20909;BME280;10614;53.198;6.570;2023-05-16T05:12:36;101928.75;;;7.46;100.00
20909;BME280;10614;53.198;6.570;2023-05-16T05:14:38;101926.16;;;7.42;100.00
20909;BME280;10614;53.198;6.570;2023-05-16T05:16:41;101931.44;;;7.40;100.00
20909;BME280;10614;53.198;6.570;2023-05-16T05:18:43;101930.56;;;7.41;100.00
20909;BME280;10614;53.198;6.570;2023-05-16T05:20:45;101932.34;;;7.37;100.00
20909;BME280;10614;53.198;6.570;2023-05-16T05:22:47;101935.78;;;7.41;100.00
20909;BME280;10614;53.198;6.570;2023-05-16T05:24:49;101941.03;;;7.43;100.00
20909;BME280;10614;53.198;6.570;2023-05-16T05:26:51;101942.72;;;7.48;100.00
20909;BME280;10614;53.198;6.570;2023-05-16T05:28:53;101936.56;;;7.51;100.00
20909;BME280;10614;53.198;6.570;2023-05-16T05:30:54;101940.00;;;7.57;100.00
20909;BME280;10614;53.198;6.570;2023-05-16T05:33:02;101946.94;;;7.61;100.00
20909;BME280;10614;53.198;6.570;2023-05-16T05:35:06;101939.91;;;7.65;100.00
20909;BME280;10614;53.198;6.570;2023-05-16T05:37:08;101945.06;;;7.74;100.00
20909;BME280;10614;53.198;6.570;2023-05-16T05:39:10;101945.06;;;7.77;100.00
20909;BME280;10614;53.198;6.570;2023-05-16T05:41:12;101942.34;;;7.85;100.00
20909;BME280;10614;53.198;6.570;2023-05-16T05:43:14;101944.00;;;7.94;100.00
20909;BME280;10614;53.198;6.570;2023-05-16T05:45:16;101935.22;;;7.93;100.00
20909;BME280;10614;53.198;6.570;2023-05-16T05:47:19;101944.69;;;8.07;100.00
20909;BME280;10614;53.198;6.570;2023-05-16T05:49:22;101950.69;;;8.19;100.00
20909;BME280;10614;53.198;6.570;2023-05-16T05:51:24;101950.53;;;8.30;100.00
20909;BME280;10614;53.198;6.570;2023-05-16T05:53:26;101961.78;;;8.41;100.00
20909;BME280;10614;53.198;6.570;2023-05-16T05:55:28;101966.00;;;8.55;100.00
20909;BME280;10614;53.198;6.570;2023-05-16T05:57:31;101961.44;;;8.68;100.00
20909;BME280;10614;53.198;6.570;2023-05-16T05:59:38;101954.28;;;8.79;100.00
20909;BME280;10614;53.198;6.570;2023-05-16T06:01:40;101956.78;;;8.86;100.00
20909;BME280;10614;53.198;6.570;2023-05-16T06:03:43;101955.78;;;8.94;100.00
20909;BME280;10614;53.198;6.570;2023-05-16T06:05:46;101949.53;;;9.04;100.00
20909;BME280;10614;53.198;6.570;2023-05-16T06:07:48;101948.56;;;9.08;100.00
20909;BME280;10614;53.198;6.570;2023-05-16T06:09:50;101972.91;;;9.19;100.00
20909;BME280;10614;53.198;6.570;2023-05-16T06:11:52;101965.88;;;9.21;100.00
20909;BME280;10614;53.198;6.570;2023-05-16T06:13:54;101971.13;;;9.21;100.00
20909;BME280;10614;53.198;6.570;2023-05-16T06:15:56;101965.81;;;9.24;100.00
20909;BME280;10614;53.198;6.570;2023-05-16T06:17:57;101971.09;;;9.23;100.00
20909;BME280;10614;53.198;6.570;2023-05-16T06:20:00;101985.09;;;9.25;100.00
20909;BME280;10614;53.198;6.570;2023-05-16T06:22:03;101971.13;;;9.20;100.00
20909;BME280;10614;53.198;6.570;2023-05-16T06:24:06;101970.19;;;9.25;100.00
20909;BME280;10614;53.198;6.570;2023-05-16T06:26:08;101979.75;;;9.29;100.00
20909;BME280;10614;53.198;6.570;2023-05-16T06:28:10;101972.69;;;9.32;100.00
20909;BME280;10614;53.198;6.570;2023-05-16T06:30:12;102000.66;;;9.37;100.00
20909;BME280;10614;53.198;6.570;2023-05-16T06:32:14;101999.88;;;9.30;100.00
20909;BME280;10614;53.198;6.570;2023-05-16T06:34:16;101995.69;;;9.17;100.00
20909;BME280;10614;53.198;6.570;2023-05-16T06:36:18;102015.06;;;9.12;100.00
20909;BME280;10614;53.198;6.570;2023-05-16T06:38:21;101996.69;;;9.12;100.00
20909;BME280;10614;53.198;6.570;2023-05-16T06:40:23;101998.44;;;9.11;100.00
20909;BME280;10614;53.198;6.570;2023-05-16T06:42:24;102008.84;;;9.17;100.00
20909;BME280;10614;53.198;6.570;2023-05-16T06:44:26;101992.22;;;9.17;100.00
20909;BME280;10614;53.198;6.570;2023-05-16T06:46:28;102016.69;;;9.20;100.00
20909;BME280;10614;53.198;6.570;2023-05-16T06:48:30;102000.78;;;9.29;100.00
20909;BME280;10614;53.198;6.570;2023-05-16T06:50:32;102010.31;;;9.35;100.00
20909;BME280;10614;53.198;6.570;2023-05-16T06:52:35;102009.34;;;9.41;100.00
20909;BME280;10614;53.198;6.570;2023-05-16T06:54:38;101996.94;;;9.50;100.00
20909;BME280;10614;53.198;6.570;2023-05-16T06:56:40;101994.25;;;9.54;100.00
20909;BME280;10614;53.198;6.570;2023-05-16T06:58:42;102002.06;;;9.58;100.00
20909;BME280;10614;53.198;6.570;2023-05-16T07:00:44;102025.66;;;9.61;100.00
20909;BME280;10614;53.198;6.570;2023-05-16T07:02:46;102023.97;;;9.57;100.00
20909;BME280;10614;53.198;6.570;2023-05-16T07:04:48;102009.97;;;9.55;100.00
20909;BME280;10614;53.198;6.570;2023-05-16T07:06:50;102027.47;;;9.58;100.00
20909;BME280;10614;53.198;6.570;2023-05-16T07:08:52;102014.34;;;9.58;100.00
20909;BME280;10614;53.198;6.570;2023-05-16T07:10:55;102007.22;;;9.63;100.00
20909;BME280;10614;53.198;6.570;2023-05-16T07:12:57;101994.03;;;9.64;100.00
20909;BME280;10614;53.198;6.570;2023-05-16T07:15:00;102011.53;;;9.67;100.00
20909;BME280;10614;53.198;6.570;2023-05-16T07:17:03;102007.88;;;9.76;100.00
20909;BME280;10614;53.198;6.570;2023-05-16T07:19:04;102027.06;;;9.81;100.00
20909;BME280;10614;53.198;6.570;2023-05-16T07:21:07;102007.69;;;9.86;100.00
20909;BME280;10614;53.198;6.570;2023-05-16T07:23:09;102011.09;;;9.91;100.00
20909;BME280;10614;53.198;6.570;2023-05-16T07:25:11;102014.41;;;10.01;100.00
20909;BME280;10614;53.198;6.570;2023-05-16T07:27:15;102009.84;;;10.11;100.00
20909;BME280;10614;53.198;6.570;2023-05-16T07:29:17;102025.44;;;10.20;100.00
20909;BME280;10614;53.198;6.570;2023-05-16T07:31:19;102035.94;;;10.23;100.00
20909;BME280;10614;53.198;6.570;2023-05-16T07:33:21;102029.75;;;10.26;100.00
20909;BME280;10614;53.198;6.570;2023-05-16T07:35:22;102012.19;;;10.25;100.00
20909;BME280;10614;53.198;6.570;2023-05-16T07:37:24;102021.97;;;10.18;100.00
20909;BME280;10614;53.198;6.570;2023-05-16T07:39:26;102033.50;;;10.12;100.00
20909;BME280;10614;53.198;6.570;2023-05-16T07:41:28;102021.44;;;10.02;100.00
20909;BME280;10614;53.198;6.570;2023-05-16T07:43:32;102029.25;;;10.04;100.00
20909;BME280;10614;53.198;6.570;2023-05-16T07:45:36;102028.34;;;10.06;100.00
20909;BME280;10614;53.198;6.570;2023-05-16T07:47:38;102027.47;;;10.06;100.00
20909;BME280;10614;53.198;6.570;2023-05-16T07:49:40;102025.69;;;10.08;100.00
20909;BME280;10614;53.198;6.570;2023-05-16T07:51:42;102030.09;;;10.07;100.00
20909;BME280;10614;53.198;6.570;2023-05-16T07:53:44;102021.38;;;10.04;100.00
20909;BME280;10614;53.198;6.570;2023-05-16T07:55:46;102024.69;;;10.13;100.00
20909;BME280;10614;53.198;6.570;2023-05-16T07:57:48;102029.63;;;10.32;100.00
20909;BME280;10614;53.198;6.570;2023-05-16T07:59:52;102023.22;;;10.47;100.00
20909;BME280;10614;53.198;6.570;2023-05-16T08:01:54;102031.69;;;10.61;100.00
20909;BME280;10614;53.198;6.570;2023-05-16T08:03:56;102047.44;;;10.63;97.75
20909;BME280;10614;53.198;6.570;2023-05-16T08:05:59;102038.84;;;10.53;95.80
20909;BME280;10614;53.198;6.570;2023-05-16T08:08:02;102036.97;;;10.60;96.42
20909;BME280;10614;53.198;6.570;2023-05-16T08:10:05;102047.22;;;10.72;99.52
20909;BME280;10614;53.198;6.570;2023-05-16T08:12:08;102032.38;;;10.69;94.81
20909;BME280;10614;53.198;6.570;2023-05-16T08:14:10;102033.88;;;10.81;96.54
20909;BME280;10614;53.198;6.570;2023-05-16T08:16:13;102024.72;;;10.97;95.85
20909;BME280;10614;53.198;6.570;2023-05-16T08:18:15;102034.00;;;11.14;93.17
20909;BME280;10614;53.198;6.570;2023-05-16T08:20:17;102062.25;;;11.09;93.86
20909;BME280;10614;53.198;6.570;2023-05-16T08:22:19;102051.19;;;10.51;99.74
20909;BME280;10614;53.198;6.570;2023-05-16T08:24:21;102058.72;;;9.75;100.00
20909;BME280;10614;53.198;6.570;2023-05-16T08:26:22;102054.41;;;9.16;100.00
20909;BME280;10614;53.198;6.570;2023-05-16T08:28:25;102054.91;;;8.81;100.00
20909;BME280;10614;53.198;6.570;2023-05-16T08:30:27;102055.91;;;8.69;100.00
20909;BME280;10614;53.198;6.570;2023-05-16T08:32:30;102056.00;;;8.63;100.00
20909;BME280;10614;53.198;6.570;2023-05-16T08:34:32;102066.38;;;8.72;100.00
20909;BME280;10614;53.198;6.570;2023-05-16T08:36:34;102047.03;;;8.81;100.00
20909;BME280;10614;53.198;6.570;2023-05-16T08:38:37;102051.19;;;8.94;100.00
20909;BME280;10614;53.198;6.570;2023-05-16T08:40:39;102045.78;;;9.06;100.00
20909;BME280;10614;53.198;6.570;2023-05-16T08:42:42;102047.91;;;9.39;100.00
20909;BME280;10614;53.198;6.570;2023-05-16T08:44:43;102047.38;;;9.71;100.00
20909;BME280;10614;53.198;6.570;2023-05-16T08:46:50;102046.13;;;9.93;100.00
20909;BME280;10614;53.198;6.570;2023-05-16T08:48:57;102052.22;;;9.96;100.00
20909;BME280;10614;53.198;6.570;2023-05-16T08:50:59;102046.03;;;9.98;100.00
20909;BME280;10614;53.198;6.570;2023-05-16T08:53:04;102046.88;;;10.00;100.00
20909;BME280;10614;53.198;6.570;2023-05-16T08:55:08;102045.97;;;10.01;100.00
20909;BME280;10614;53.198;6.570;2023-05-16T08:57:12;102052.84;;;10.08;100.00
20909;BME280;10614;53.198;6.570;2023-05-16T08:59:15;102061.50;;;10.17;100.00
20909;BME280;10614;53.198;6.570;2023-05-16T09:01:17;102063.13;;;10.22;100.00
20909;BME280;10614;53.198;6.570;2023-05-16T09:03:20;102043.72;;;10.29;100.00
20909;BME280;10614;53.198;6.570;2023-05-16T09:05:28;102051.09;;;10.55;100.00
20909;BME280;10614;53.198;6.570;2023-05-16T09:07:30;102053.16;;;10.83;100.00
20909;BME280;10614;53.198;6.570;2023-05-16T09:09:32;102053.03;;;10.89;98.36
20909;BME280;10614;53.198;6.570;2023-05-16T09:11:34;102047.00;;;10.83;96.15
20909;BME280;10614;53.198;6.570;2023-05-16T09:13:38;102057.47;;;10.86;96.48
20909;BME280;10614;53.198;6.570;2023-05-16T09:15:40;102062.50;;;10.98;94.65
20909;BME280;10614;53.198;6.570;2023-05-16T09:17:43;102056.75;;;11.19;95.03
20909;BME280;10614;53.198;6.570;2023-05-16T09:19:45;102051.09;;;11.35;94.31
20909;BME280;10614;53.198;6.570;2023-05-16T09:21:51;102060.34;;;11.53;97.08
20909;BME280;10614;53.198;6.570;2023-05-16T09:23:53;102057.78;;;11.50;95.36
20909;BME280;10614;53.198;6.570;2023-05-16T09:25:56;102062.34;;;11.41;92.92
20909;BME280;10614;53.198;6.570;2023-05-16T09:28:00;102051.91;;;11.37;90.76
20909;BME280;10614;53.198;6.570;2023-05-16T09:30:02;102054.59;;;11.35;92.74
20909;BME280;10614;53.198;6.570;2023-05-16T09:32:09;102070.19;;;11.45;94.97
20909;BME280;10614;53.198;6.570;2023-05-16T09:34:11;102057.91;;;11.45;94.43
20909;BME280;10614;53.198;6.570;2023-05-16T09:36:14;102071.84;;;11.49;91.13
20909;BME280;10614;53.198;6.570;2023-05-16T09:38:17;102076.63;;;11.33;93.47
20909;BME280;10614;53.198;6.570;2023-05-16T09:40:19;102067.03;;;10.91;99.23
20909;BME280;10614;53.198;6.570;2023-05-16T09:42:24;102080.38;;;10.40;100.00
20909;BME280;10614;53.198;6.570;2023-05-16T09:44:26;102079.47;;;9.93;100.00
20909;BME280;10614;53.198;6.570;2023-05-16T09:46:27;102079.00;;;9.68;100.00
20909;BME280;10614;53.198;6.570;2023-05-16T09:48:31;102070.31;;;9.63;100.00
20909;BME280;10614;53.198;6.570;2023-05-16T09:50:34;102060.44;;;9.76;100.00
20909;BME280;10614;53.198;6.570;2023-05-16T09:52:37;102061.75;;;10.01;100.00
20909;BME280;10614;53.198;6.570;2023-05-16T09:54:41;102052.53;;;10.25;100.00
20909;BME280;10614;53.198;6.570;2023-05-16T09:56:49;102071.44;;;10.49;100.00
20909;BME280;10614;53.198;6.570;2023-05-16T09:58:52;102065.91;;;10.61;100.00
20909;BME280;10614;53.198;6.570;2023-05-16T10:00:55;102068.50;;;10.63;100.00
20909;BME280;10614;53.198;6.570;2023-05-16T10:02:59;102080.06;;;10.55;100.00
20909;BME280;10614;53.198;6.570;2023-05-16T10:05:02;102071.56;;;10.41;100.00
20909;BME280;10614;53.198;6.570;2023-05-16T10:07:05;102063.47;;;10.50;100.00
20909;BME280;10614;53.198;6.570;2023-05-16T10:09:10;102058.69;;;10.71;100.00
20909;BME280;10614;53.198;6.570;2023-05-16T10:11:15;102079.09;;;11.02;100.00
20909;BME280;10614;53.198;6.570;2023-05-16T10:13:21;102061.06;;;11.22;100.00
20909;BME280;10614;53.198;6.570;2023-05-16T10:15:24;102071.09;;;11.44;98.43
20909;BME280;10614;53.198;6.570;2023-05-16T10:17:27;102090.22;;;11.52;93.97
20909;BME280;10614;53.198;6.570;2023-05-16T10:19:31;102064.59;;;11.21;100.00
20909;BME280;10614;53.198;6.570;2023-05-16T10:21:37;102082.69;;;10.55;100.00
20909;BME280;10614;53.198;6.570;2023-05-16T10:23:42;102076.78;;;9.94;100.00
20909;BME280;10614;53.198;6.570;2023-05-16T10:25:45;102075.50;;;9.67;100.00
20909;BME280;10614;53.198;6.570;2023-05-16T10:27:49;102084.34;;;9.62;100.00
20909;BME280;10614;53.198;6.570;2023-05-16T10:29:52;102071.91;;;9.71;100.00
20909;BME280;10614;53.198;6.570;2023-05-16T10:31:55;102082.19;;;9.87;100.00
20909;BME280;10614;53.198;6.570;2023-05-16T10:33:57;102080.16;;;10.01;100.00
20909;BME280;10614;53.198;6.570;2023-05-16T10:36:01;102068.31;;;10.28;100.00
20909;BME280;10614;53.198;6.570;2023-05-16T10:38:05;102074.84;;;10.54;100.00
20909;BME280;10614;53.198;6.570;2023-05-16T10:40:09;102067.53;;;10.67;100.00